Timeline UpdatesTrip UpdatesNews PostsPvt PostsTravel TipsAdmin PostsConv PostsFollowed PostsChat RequestsBlog PostsPNR Posts

Disclaimer
Search
 
 
Wed Sep 3, 2014 10:16:39 ISTHomeTrainsΣChainsAtlasPNRForumGalleryNewsFAQTripsMembersLoginFeedback
No Recent News for this Train
Other Trains in the News **new
Latest...
Monsoon TT effective from 1/7/14-30/9/14.
Tue Jul 01, 2014 (08:30PM)
⇐ Return Journey: Train# 16338

16337/Okha-Ernakulam Express

NO Time-Table Change. update tt
Sep 01 (11:49PM)
Change Departure Station:
Change Arrival Station:
Post a Train Travel TipPost a Train Travel Tip **new
Post a Comment/Question/Picture/VideoPost a Comment/Question/Picture/Video
Pantry/Catering
✓ Pantry Car Avbl
✓ Catering Avbl
RSA - Rake Sharing
12683/84 Ernakulam Bangalore Express
Rake/Coach Composition
SLR-UR-A1-B2-B1-S12-S11-PC-S10-S9-S8-S7-S6-S5-S4-S3-S2-S1-UR-UR-SLR.; Author: Mahesh Kavthankar.; Entry# 276086.
Loco
ERS WDM3A
News    PNR    Forum    Time-Table    Availability    Fare Chart    Map    Arr/Dep History    Trips    Gallery    ΣChains    X/O    Timeline    
Travel Time: 41h 8m    36 halts    Distance: 1994 km    Avg Speed: 48 km/hr
Type: Mail/Express
Zone: SR/Southern
Departs @ 02:00
Platform# 1
 M    S
Okha/OKHA 
Arrives @ 19:08 +1 night
Platform# 2
S T    
Thalassery/TLY 

36 halts. 257 intermediate Stations between Okha and Thalassery

Show ALL intermediate Stations  

#CodeStation NameX/OArrivesAvgDepartsAvgHaltPFDay#KmSpeedElevZoneAddress
1OKHA»Okha (3)»  -02:00-110.0615mWROkha, Gujarat
2DWKDwarka (2)  02:28-02:30-2m--128.65914mWRDwarka, Gujarat
3KMBLKhambhalia  03:56-03:58-2m--1112.74849mWRKhambhalia, Gujarat
4JAMJamnagar (2)  05:06-05:08-2m--1167.04014mWRJamnagar, Gujarat
5HAPAHapa (3)05:21-05:23-2m--1175.76516mWRJamnagar, Gujarat
6RJTRajkot Junction (5)X  06:33-06:35-2m11251.661128mWRRajkot, Gujarat
7SUNRSurendranagar Junction (4)X  08:30-08:32-2m--1367.65072mWRSurendra Nagar, Gujarat
8VGViramgam Junction (5)  09:50-09:52-2m21433.15429mWRViramgam, Gujarat
9ADIAhmedabad Junction (12)X  11:05-11:25-20m51498.56251mWRAhmedabad, Gujarat
10ANNDAnand Junction (6)X  12:27-12:29-2m11562.55244mWRAnand, Gujarat
11BRCVadodara Junction (7)X  13:10-13:12-2m11598.37036mWRVadodara 390005, Gujarat
12AKVAnkleshwar Junction (4)X  14:20-14:22-2m21678.14219mWRAnkleshwar, Gujarat
13STSurat (4)X  15:33-15:35-2m21728.15719mWRSurat 395001, Gujarat
14NVSNavsari (3)  16:06-16:08-2m21757.75914mWRNavsari, Gujarat
15BLValsad (3)X  16:48-16:53-5m31796.84715mWRValsad, Gujarat
16BORBoisar (3)X18:57-18:59-2m--1893.33417mWRBoisar Tel.no-02525-266626, Maharashtra
17BSRVasai Road (7)  20:30-20:40-10m71944.1637mWRVasai 401202, Maharashtra
18BIRDBhiwandi Road (4)X  21:06-21:08-2m11971.44526mCRBhiwandi, Maharashtra
19PNVLPanvel Junction (7)  22:00-22:05-5m711010.05010mCRPanvel, Maharashtra
20MNIMangaon (2)X  00:12-00:14-2m121116.25212mKRMangaon - 402104, Maharashtra
21RNRatnagiri (3)  03:35-03:40-5m121289.155129mKRRatnagiri 415612, Maharashtra
22KKWKankavali (2)  05:42-05:44-2m121400.55645mKRKankavli - 416602, Maharashtra
23THVMThivim (2)  07:08-07:10-2m121479.02121mKRThivim - 403502, Goa
24MAOMadgaon Junction (3)  09:20-09:30-10m121523.95711mKRMadgaon 403601, Goa
25KAWRKarwar (2)  10:35-10:37-2m121585.35214mKRKarwar, Karnataka
26HNAHonnavar (2)X  11:56-11:58-2m--21654.2614mKRUttara Kannada Dist, Karnataka
27BTJLBhatkal (2)  12:38-12:40-2m121695.15716mKRBhatkal - 581320, Karnataka
28BYNRByndoor Mookambika Road (1)  12:56-12:58-2m121710.37210mKRUdupi Dist. 576214, Karnataka
29KUDAKundapura (2)  13:26-13:28-2m121743.85613mKRKundapura - 576211, Karnataka
30UDUdupi (2)X  14:02-14:04-2m121775.85218mKRUdupi, Karnataka
31SLSurathkal (1)X  14:52-14:54-2m121817.71922mKRSurathkal, Karnataka
32MAJNMangalore Junction (3)  16:00-16:10-10m121838.25124mSRMangalore 575001, Karnataka
33KGQKasaragod (3)  17:08-17:10-2m--21887.37718mSRTel: 04994 220800, Kerala
34KZEKanhangad (3)X  17:28-17:30-2m--21910.47615mSRKanhangad, Kerala
35PAYPayyanur (3)  17:53-17:55-2m221939.7770mSRKannur District, Kerala
36KPQKannapuram (2)XO  18:10-18:12-2m221958.9269mSRKannur District, Kerala
37CANKannur Main (4)X  18:45-18:50-5m321973.36914mSRKannur Tel: 0497 2705555, Kerala
38TLY•Thalassery (2)•  19:08-19:10-2m221994.0669mSRKannur, Kerala
39BDJVadakara (2)X  19:30-19:32-2m122016.18211mSRCalicut / Station Ph No : 0496-2524254, Kerala
40QLDKoyilandy (3)  19:48-19:50-2m222038.14211mSRQuilandi, Kerala
41CLTKozhikode Main (4)  20:25-20:30-5m122062.44611mSRCalicut Tel: 0495 2701234, Kerala
42FKFerok (2)  20:43-20:45-2m122072.47019mSRFeroke, Kerala
43PGIParappangadi (2)  20:58-21:00-2m122087.65419mSRParappanangadi, Kerala
44TIRTirur (3)  21:18-21:20-2m322103.6509mSRTel: 0494 2422240, Kerala
45KTUKuttippuram (2)  21:38-21:40-2m222118.78517mSRKuttippuram, Kerala
46PTBPattambi (2)XO  21:53-21:55-2m222137.21321mSRPattambi, Kerala
47SRRShoranur Junction (7)O  22:50-23:00-10m422148.76626mSRShoranur ph.no 0466-2222913, Kerala
48TCRThrissur (4)X  23:30-23:33-3m122181.7706mSRThrissur Tel: 0487 2423150, Kerala
49AWYAluva (3)X  00:20-00:22-2m132236.32212mSRPh: 0484-2624141, Kerala
50ERSErnakulam Junction (South) (6)  01:15--532255.7-3mSRErnakulam 682016, Kerala
Scroll to Top
Scroll to Bottom